sensor_id;sensor_type;location;lat;lon;timestamp;temperature;humidity
4245;DHT22;2136;48.502;9.194;2022-10-16T00:01:14;17.50;99.90
4245;DHT22;2136;48.502;9.194;2022-10-16T00:03:42;17.50;99.90
4245;DHT22;2136;48.502;9.194;2022-10-16T00:06:10;17.50;99.90
4245;DHT22;2136;48.502;9.194;2022-10-16T00:08:38;17.50;99.90
4245;DHT22;2136;48.502;9.194;2022-10-16T00:11:06;17.40;99.90
4245;DHT22;2136;48.502;9.194;2022-10-16T00:13:36;17.40;99.90
4245;DHT22;2136;48.502;9.194;2022-10-16T00:16:04;17.40;99.90
4245;DHT22;2136;48.502;9.194;2022-10-16T00:18:31;17.40;99.90
4245;DHT22;2136;48.502;9.194;2022-10-16T00:21:02;17.50;99.90
4245;DHT22;2136;48.502;9.194;2022-10-16T00:23:29;17.50;99.90
4245;DHT22;2136;48.502;9.194;2022-10-16T00:25:58;17.50;99.90
4245;DHT22;2136;48.502;9.194;2022-10-16T00:28:25;17.40;99.90
4245;DHT22;2136;48.502;9.194;2022-10-16T00:30:54;17.40;99.90
4245;DHT22;2136;48.502;9.194;2022-10-16T00:33:21;17.50;99.90
4245;DHT22;2136;48.502;9.194;2022-10-16T00:35:48;17.40;99.90
4245;DHT22;2136;48.502;9.194;2022-10-16T00:38:15;17.40;99.90
4245;DHT22;2136;48.502;9.194;2022-10-16T00:40:42;17.30;99.90
4245;DHT22;2136;48.502;9.194;2022-10-16T00:43:13;17.30;99.90
4245;DHT22;2136;48.502;9.194;2022-10-16T00:45:41;17.20;99.90
4245;DHT22;2136;48.502;9.194;2022-10-16T00:48:11;17.30;99.90
4245;DHT22;2136;48.502;9.194;2022-10-16T00:50:39;17.20;99.90
4245;DHT22;2136;48.502;9.194;2022-10-16T00:53:08;17.20;99.90
4245;DHT22;2136;48.502;9.194;2022-10-16T00:55:36;17.10;99.90
4245;DHT22;2136;48.502;9.194;2022-10-16T00:58:03;17.20;99.90
4245;DHT22;2136;48.502;9.194;2022-10-16T01:00:30;17.10;99.90
4245;DHT22;2136;48.502;9.194;2022-10-16T01:02:59;17.10;99.90
4245;DHT22;2136;48.502;9.194;2022-10-16T01:05:33;17.30;99.90
4245;DHT22;2136;48.502;9.194;2022-10-16T01:08:04;17.20;99.90
4245;DHT22;2136;48.502;9.194;2022-10-16T01:10:36;17.20;99.90
4245;DHT22;2136;48.502;9.194;2022-10-16T01:13:06;17.20;99.90
4245;DHT22;2136;48.502;9.194;2022-10-16T01:15:36;17.20;99.90
4245;DHT22;2136;48.502;9.194;2022-10-16T01:18:07;17.20;99.90
4245;DHT22;2136;48.502;9.194;2022-10-16T01:20:40;17.20;99.90
4245;DHT22;2136;48.502;9.194;2022-10-16T01:23:20;17.20;99.90
4245;DHT22;2136;48.502;9.194;2022-10-16T01:26:04;17.20;99.90
4245;DHT22;2136;48.502;9.194;2022-10-16T01:28:41;17.20;99.90
4245;DHT22;2136;48.502;9.194;2022-10-16T01:31:15;17.10;99.90
4245;DHT22;2136;48.502;9.194;2022-10-16T01:33:45;17.10;99.90
4245;DHT22;2136;48.502;9.194;2022-10-16T01:36:16;17.10;99.90
4245;DHT22;2136;48.502;9.194;2022-10-16T01:38:45;17.10;99.90
4245;DHT22;2136;48.502;9.194;2022-10-16T01:41:15;17.00;99.90
4245;DHT22;2136;48.502;9.194;2022-10-16T01:43:48;17.00;99.90
4245;DHT22;2136;48.502;9.194;2022-10-16T01:46:18;17.00;99.90
4245;DHT22;2136;48.502;9.194;2022-10-16T01:48:48;16.90;99.90
4245;DHT22;2136;48.502;9.194;2022-10-16T01:51:17;16.90;99.90
4245;DHT22;2136;48.502;9.194;2022-10-16T01:53:48;16.90;99.90
4245;DHT22;2136;48.502;9.194;2022-10-16T01:56:17;16.80;99.90
4245;DHT22;2136;48.502;9.194;2022-10-16T01:58:51;16.80;99.90
4245;DHT22;2136;48.502;9.194;2022-10-16T02:01:22;16.90;99.90
4245;DHT22;2136;48.502;9.194;2022-10-16T02:03:52;17.00;99.90
4245;DHT22;2136;48.502;9.194;2022-10-16T02:06:20;16.90;99.90
4245;DHT22;2136;48.502;9.194;2022-10-16T02:08:50;16.90;99.90
4245;DHT22;2136;48.502;9.194;2022-10-16T02:11:17;16.80;99.90
4245;DHT22;2136;48.502;9.194;2022-10-16T02:13:46;16.80;99.90
4245;DHT22;2136;48.502;9.194;2022-10-16T02:16:15;16.80;99.90
4245;DHT22;2136;48.502;9.194;2022-10-16T02:18:43;16.70;99.90
4245;DHT22;2136;48.502;9.194;2022-10-16T02:21:16;16.70;99.90
4245;DHT22;2136;48.502;9.194;2022-10-16T02:23:49;16.70;99.90
4245;DHT22;2136;48.502;9.194;2022-10-16T02:26:23;16.70;99.90
4245;DHT22;2136;48.502;9.194;2022-10-16T02:28:56;16.70;99.90
4245;DHT22;2136;48.502;9.194;2022-10-16T02:31:28;16.70;99.90
4245;DHT22;2136;48.502;9.194;2022-10-16T02:34:00;16.70;99.90
4245;DHT22;2136;48.502;9.194;2022-10-16T02:36:31;16.70;99.90
4245;DHT22;2136;48.502;9.194;2022-10-16T02:38:59;16.70;99.90
4245;DHT22;2136;48.502;9.194;2022-10-16T02:41:27;16.60;99.90
4245;DHT22;2136;48.502;9.194;2022-10-16T02:43:55;16.60;99.90
4245;DHT22;2136;48.502;9.194;2022-10-16T02:46:22;16.60;99.90
4245;DHT22;2136;48.502;9.194;2022-10-16T02:48:49;16.50;99.90
4245;DHT22;2136;48.502;9.194;2022-10-16T02:51:16;16.50;99.90
4245;DHT22;2136;48.502;9.194;2022-10-16T02:53:42;16.60;99.90
4245;DHT22;2136;48.502;9.194;2022-10-16T02:56:09;16.50;99.90
4245;DHT22;2136;48.502;9.194;2022-10-16T02:58:36;16.50;99.90
4245;DHT22;2136;48.502;9.194;2022-10-16T03:01:04;16.50;99.90
4245;DHT22;2136;48.502;9.194;2022-10-16T03:03:31;16.40;99.90
4245;DHT22;2136;48.502;9.194;2022-10-16T03:05:58;16.40;99.90
4245;DHT22;2136;48.502;9.194;2022-10-16T03:08:24;16.40;99.90
4245;DHT22;2136;48.502;9.194;2022-10-16T03:10:51;16.40;99.90
4245;DHT22;2136;48.502;9.194;2022-10-16T03:13:18;16.40;99.90
4245;DHT22;2136;48.502;9.194;2022-10-16T03:15:46;16.40;99.90
4245;DHT22;2136;48.502;9.194;2022-10-16T03:18:14;16.40;99.90
4245;DHT22;2136;48.502;9.194;2022-10-16T03:20:42;16.40;99.90
4245;DHT22;2136;48.502;9.194;2022-10-16T03:23:09;16.40;99.90
4245;DHT22;2136;48.502;9.194;2022-10-16T03:25:36;16.40;99.90
4245;DHT22;2136;48.502;9.194;2022-10-16T03:28:03;16.30;99.90
4245;DHT22;2136;48.502;9.194;2022-10-16T03:30:30;16.40;99.90
4245;DHT22;2136;48.502;9.194;2022-10-16T03:32:57;16.30;99.90
4245;DHT22;2136;48.502;9.194;2022-10-16T03:35:25;16.30;99.90
4245;DHT22;2136;48.502;9.194;2022-10-16T03:37:52;16.30;99.90
4245;DHT22;2136;48.502;9.194;2022-10-16T03:40:19;16.30;99.90
4245;DHT22;2136;48.502;9.194;2022-10-16T03:42:45;16.30;99.90
4245;DHT22;2136;48.502;9.194;2022-10-16T03:45:12;16.30;99.90
4245;DHT22;2136;48.502;9.194;2022-10-16T03:47:39;16.40;99.90
4245;DHT22;2136;48.502;9.194;2022-10-16T03:50:07;16.30;99.90
4245;DHT22;2136;48.502;9.194;2022-10-16T03:52:35;16.20;99.90
4245;DHT22;2136;48.502;9.194;2022-10-16T03:55:02;16.20;99.90
4245;DHT22;2136;48.502;9.194;2022-10-16T03:57:29;16.20;99.90
4245;DHT22;2136;48.502;9.194;2022-10-16T03:59:55;16.20;99.90
4245;DHT22;2136;48.502;9.194;2022-10-16T04:02:22;16.20;99.90
4245;DHT22;2136;48.502;9.194;2022-10-16T04:04:49;16.20;99.90
4245;DHT22;2136;48.502;9.194;2022-10-16T04:07:16;16.20;99.90
4245;DHT22;2136;48.502;9.194;2022-10-16T04:09:44;16.20;99.90
4245;DHT22;2136;48.502;9.194;2022-10-16T04:12:11;16.20;99.90
4245;DHT22;2136;48.502;9.194;2022-10-16T04:14:37;16.20;99.90
4245;DHT22;2136;48.502;9.194;2022-10-16T04:17:04;16.20;99.90
4245;DHT22;2136;48.502;9.194;2022-10-16T04:19:31;16.20;99.90
4245;DHT22;2136;48.502;9.194;2022-10-16T04:21:58;16.20;99.90
4245;DHT22;2136;48.502;9.194;2022-10-16T04:24:25;16.20;99.90
4245;DHT22;2136;48.502;9.194;2022-10-16T04:26:53;16.20;99.90
4245;DHT22;2136;48.502;9.194;2022-10-16T04:29:19;16.20;99.90
4245;DHT22;2136;48.502;9.194;2022-10-16T04:31:46;16.20;99.90
4245;DHT22;2136;48.502;9.194;2022-10-16T04:34:13;16.20;99.90
4245;DHT22;2136;48.502;9.194;2022-10-16T04:36:40;16.20;99.90
4245;DHT22;2136;48.502;9.194;2022-10-16T04:39:07;16.20;99.90
4245;DHT22;2136;48.502;9.194;2022-10-16T04:41:34;16.20;99.90
4245;DHT22;2136;48.502;9.194;2022-10-16T04:44:02;16.20;99.90
4245;DHT22;2136;48.502;9.194;2022-10-16T04:46:29;16.20;99.90
4245;DHT22;2136;48.502;9.194;2022-10-16T04:48:55;16.20;99.90
4245;DHT22;2136;48.502;9.194;2022-10-16T04:51:22;16.20;99.90
4245;DHT22;2136;48.502;9.194;2022-10-16T04:53:49;16.20;99.90
4245;DHT22;2136;48.502;9.194;2022-10-16T04:56:16;16.20;99.90
4245;DHT22;2136;48.502;9.194;2022-10-16T04:58:43;16.20;99.90
4245;DHT22;2136;48.502;9.194;2022-10-16T05:01:11;16.20;99.90
4245;DHT22;2136;48.502;9.194;2022-10-16T05:03:38;16.20;99.90
4245;DHT22;2136;48.502;9.194;2022-10-16T05:06:06;16.20;99.90
4245;DHT22;2136;48.502;9.194;2022-10-16T05:08:33;16.20;99.90
4245;DHT22;2136;48.502;9.194;2022-10-16T05:11:00;16.20;99.90
4245;DHT22;2136;48.502;9.194;2022-10-16T05:13:27;16.20;99.90
4245;DHT22;2136;48.502;9.194;2022-10-16T05:15:54;16.20;99.90
4245;DHT22;2136;48.502;9.194;2022-10-16T05:18:22;16.10;99.90
4245;DHT22;2136;48.502;9.194;2022-10-16T05:20:49;16.10;99.90
4245;DHT22;2136;48.502;9.194;2022-10-16T05:23:16;16.10;99.90
4245;DHT22;2136;48.502;9.194;2022-10-16T05:25:42;16.00;99.90
4245;DHT22;2136;48.502;9.194;2022-10-16T05:28:09;16.10;99.90
4245;DHT22;2136;48.502;9.194;2022-10-16T05:30:37;16.00;99.90
4245;DHT22;2136;48.502;9.194;2022-10-16T05:33:04;16.00;99.90
4245;DHT22;2136;48.502;9.194;2022-10-16T05:35:32;16.00;99.90
4245;DHT22;2136;48.502;9.194;2022-10-16T05:38:00;15.90;99.90
4245;DHT22;2136;48.502;9.194;2022-10-16T05:40:27;15.90;99.90
4245;DHT22;2136;48.502;9.194;2022-10-16T05:42:55;15.90;99.90
4245;DHT22;2136;48.502;9.194;2022-10-16T05:45:22;15.80;99.90
4245;DHT22;2136;48.502;9.194;2022-10-16T05:47:48;15.80;99.90
4245;DHT22;2136;48.502;9.194;2022-10-16T05:50:15;15.80;99.90
4245;DHT22;2136;48.502;9.194;2022-10-16T05:52:43;15.80;99.90
4245;DHT22;2136;48.502;9.194;2022-10-16T05:55:10;15.80;99.90
4245;DHT22;2136;48.502;9.194;2022-10-16T05:57:37;15.90;99.90
4245;DHT22;2136;48.502;9.194;2022-10-16T06:00:05;15.90;99.90
4245;DHT22;2136;48.502;9.194;2022-10-16T06:02:32;15.80;99.90
4245;DHT22;2136;48.502;9.194;2022-10-16T06:04:58;15.90;99.90
4245;DHT22;2136;48.502;9.194;2022-10-16T06:07:25;16.00;99.90
4245;DHT22;2136;48.502;9.194;2022-10-16T06:09:53;16.00;99.90
4245;DHT22;2136;48.502;9.194;2022-10-16T06:12:20;16.00;99.90
4245;DHT22;2136;48.502;9.194;2022-10-16T06:14:47;16.00;99.90
4245;DHT22;2136;48.502;9.194;2022-10-16T06:17:14;16.10;99.90
4245;DHT22;2136;48.502;9.194;2022-10-16T06:19:41;16.10;99.90
4245;DHT22;2136;48.502;9.194;2022-10-16T06:22:08;16.10;99.90
4245;DHT22;2136;48.502;9.194;2022-10-16T06:24:34;16.10;99.90
4245;DHT22;2136;48.502;9.194;2022-10-16T06:27:03;16.20;99.90
4245;DHT22;2136;48.502;9.194;2022-10-16T06:29:29;16.20;99.90
4245;DHT22;2136;48.502;9.194;2022-10-16T06:31:56;16.20;99.90
4245;DHT22;2136;48.502;9.194;2022-10-16T06:34:23;16.20;99.90
4245;DHT22;2136;48.502;9.194;2022-10-16T06:36:50;16.20;99.90
4245;DHT22;2136;48.502;9.194;2022-10-16T06:39:17;16.30;99.90
4245;DHT22;2136;48.502;9.194;2022-10-16T06:41:43;16.40;99.90
4245;DHT22;2136;48.502;9.194;2022-10-16T06:44:11;16.40;99.90
4245;DHT22;2136;48.502;9.194;2022-10-16T06:46:38;16.40;99.90
4245;DHT22;2136;48.502;9.194;2022-10-16T06:49:05;16.50;99.90
4245;DHT22;2136;48.502;9.194;2022-10-16T06:51:32;16.60;99.90
4245;DHT22;2136;48.502;9.194;2022-10-16T06:54:01;16.70;99.90
4245;DHT22;2136;48.502;9.194;2022-10-16T06:56:28;16.80;99.90
4245;DHT22;2136;48.502;9.194;2022-10-16T06:58:56;16.90;99.90
4245;DHT22;2136;48.502;9.194;2022-10-16T07:01:24;16.90;99.90
4245;DHT22;2136;48.502;9.194;2022-10-16T07:03:52;17.00;99.90
4245;DHT22;2136;48.502;9.194;2022-10-16T07:06:20;17.00;99.90
4245;DHT22;2136;48.502;9.194;2022-10-16T07:08:48;17.10;99.90
4245;DHT22;2136;48.502;9.194;2022-10-16T07:11:16;17.10;99.90
4245;DHT22;2136;48.502;9.194;2022-10-16T07:13:44;17.10;99.90
4245;DHT22;2136;48.502;9.194;2022-10-16T07:16:14;17.20;99.90
4245;DHT22;2136;48.502;9.194;2022-10-16T07:18:43;17.20;99.90
4245;DHT22;2136;48.502;9.194;2022-10-16T07:21:12;17.20;99.90
4245;DHT22;2136;48.502;9.194;2022-10-16T07:23:40;17.30;99.90
4245;DHT22;2136;48.502;9.194;2022-10-16T07:26:07;17.40;99.90
4245;DHT22;2136;48.502;9.194;2022-10-16T07:28:34;17.60;99.90
4245;DHT22;2136;48.502;9.194;2022-10-16T07:31:01;17.70;99.90
4245;DHT22;2136;48.502;9.194;2022-10-16T07:33:28;17.70;99.90
4245;DHT22;2136;48.502;9.194;2022-10-16T07:35:57;17.80;99.90
4245;DHT22;2136;48.502;9.194;2022-10-16T07:38:23;17.80;99.90
4245;DHT22;2136;48.502;9.194;2022-10-16T07:40:56;18.00;99.90
4245;DHT22;2136;48.502;9.194;2022-10-16T07:43:24;18.00;99.90
4245;DHT22;2136;48.502;9.194;2022-10-16T07:45:51;18.10;99.90
4245;DHT22;2136;48.502;9.194;2022-10-16T07:48:18;18.20;99.90
4245;DHT22;2136;48.502;9.194;2022-10-16T07:50:45;18.20;99.90
4245;DHT22;2136;48.502;9.194;2022-10-16T07:53:14;18.30;99.90
4245;DHT22;2136;48.502;9.194;2022-10-16T07:55:41;18.30;99.90
4245;DHT22;2136;48.502;9.194;2022-10-16T07:58:07;18.40;99.90
4245;DHT22;2136;48.502;9.194;2022-10-16T08:00:36;18.40;99.90
4245;DHT22;2136;48.502;9.194;2022-10-16T08:03:03;18.60;99.90
4245;DHT22;2136;48.502;9.194;2022-10-16T08:05:31;18.70;99.90
4245;DHT22;2136;48.502;9.194;2022-10-16T08:07:59;18.80;99.90
4245;DHT22;2136;48.502;9.194;2022-10-16T08:10:28;18.90;99.90
4245;DHT22;2136;48.502;9.194;2022-10-16T08:12:55;18.90;99.90
4245;DHT22;2136;48.502;9.194;2022-10-16T08:15:22;18.90;99.90
4245;DHT22;2136;48.502;9.194;2022-10-16T08:17:57;18.90;99.90
4245;DHT22;2136;48.502;9.194;2022-10-16T08:20:24;19.00;99.90
4245;DHT22;2136;48.502;9.194;2022-10-16T08:22:51;19.20;99.90
4245;DHT22;2136;48.502;9.194;2022-10-16T08:25:17;19.40;99.90
4245;DHT22;2136;48.502;9.194;2022-10-16T08:27:46;19.50;99.90
4245;DHT22;2136;48.502;9.194;2022-10-16T08:30:13;19.60;99.90
4245;DHT22;2136;48.502;9.194;2022-10-16T08:32:40;19.70;99.80
4245;DHT22;2136;48.502;9.194;2022-10-16T08:35:08;19.80;99.30
4245;DHT22;2136;48.502;9.194;2022-10-16T08:37:35;19.90;99.00
4245;DHT22;2136;48.502;9.194;2022-10-16T08:40:03;20.00;98.60
4245;DHT22;2136;48.502;9.194;2022-10-16T08:42:39;20.20;98.80
4245;DHT22;2136;48.502;9.194;2022-10-16T08:45:21;20.30;97.60
4245;DHT22;2136;48.502;9.194;2022-10-16T08:47:59;20.40;96.20
4245;DHT22;2136;48.502;9.194;2022-10-16T08:50:29;20.40;95.00
4245;DHT22;2136;48.502;9.194;2022-10-16T08:52:57;20.40;94.40
4245;DHT22;2136;48.502;9.194;2022-10-16T08:55:38;20.40;94.60
4245;DHT22;2136;48.502;9.194;2022-10-16T08:58:14;20.50;94.30
4245;DHT22;2136;48.502;9.194;2022-10-16T09:00:45;20.60;93.90
4245;DHT22;2136;48.502;9.194;2022-10-16T09:03:22;20.70;93.20
4245;DHT22;2136;48.502;9.194;2022-10-16T09:06:24;20.80;93.10
4245;DHT22;2136;48.502;9.194;2022-10-16T09:09:08;21.00;93.20
4245;DHT22;2136;48.502;9.194;2022-10-16T09:11:44;21.30;92.30
4245;DHT22;2136;48.502;9.194;2022-10-16T09:14:31;21.50;91.50
4245;DHT22;2136;48.502;9.194;2022-10-16T09:17:16;21.70;90.60
4245;DHT22;2136;48.502;9.194;2022-10-16T09:19:50;22.00;89.30
4245;DHT22;2136;48.502;9.194;2022-10-16T09:22:18;22.30;88.10
4245;DHT22;2136;48.502;9.194;2022-10-16T09:24:48;22.50;86.40
4245;DHT22;2136;48.502;9.194;2022-10-16T09:27:15;22.90;84.60
4245;DHT22;2136;48.502;9.194;2022-10-16T09:29:42;23.10;81.90
4245;DHT22;2136;48.502;9.194;2022-10-16T09:32:13;23.30;79.50
4245;DHT22;2136;48.502;9.194;2022-10-16T09:34:43;23.40;78.30
4245;DHT22;2136;48.502;9.194;2022-10-16T09:37:14;23.50;77.80
4245;DHT22;2136;48.502;9.194;2022-10-16T09:39:47;23.50;76.70
4245;DHT22;2136;48.502;9.194;2022-10-16T09:42:16;23.40;76.50
4245;DHT22;2136;48.502;9.194;2022-10-16T09:44:47;23.40;75.90
4245;DHT22;2136;48.502;9.194;2022-10-16T09:47:19;23.40;76.20
4245;DHT22;2136;48.502;9.194;2022-10-16T09:49:54;23.60;76.80
4245;DHT22;2136;48.502;9.194;2022-10-16T09:52:22;23.70;75.40
4245;DHT22;2136;48.502;9.194;2022-10-16T09:54:50;23.70;74.40
4245;DHT22;2136;48.502;9.194;2022-10-16T09:57:17;23.70;74.30
4245;DHT22;2136;48.502;9.194;2022-10-16T09:59:48;23.60;74.20
4245;DHT22;2136;48.502;9.194;2022-10-16T10:02:19;23.60;74.70
4245;DHT22;2136;48.502;9.194;2022-10-16T10:04:49;23.70;75.30
4245;DHT22;2136;48.502;9.194;2022-10-16T10:07:24;24.40;75.90
4245;DHT22;2136;48.502;9.194;2022-10-16T10:09:52;24.80;73.60
4245;DHT22;2136;48.502;9.194;2022-10-16T10:12:21;25.00;71.30
4245;DHT22;2136;48.502;9.194;2022-10-16T10:14:50;24.90;70.20
4245;DHT22;2136;48.502;9.194;2022-10-16T10:17:20;24.70;70.30
4245;DHT22;2136;48.502;9.194;2022-10-16T10:19:49;24.60;70.60
4245;DHT22;2136;48.502;9.194;2022-10-16T10:22:25;24.40;70.60
4245;DHT22;2136;48.502;9.194;2022-10-16T10:24:56;24.40;70.80
4245;DHT22;2136;48.502;9.194;2022-10-16T10:27:28;25.00;74.20
4245;DHT22;2136;48.502;9.194;2022-10-16T10:30:02;27.50;70.10
4245;DHT22;2136;48.502;9.194;2022-10-16T10:32:37;31.40;60.90
4245;DHT22;2136;48.502;9.194;2022-10-16T10:35:14;35.40;53.10
4245;DHT22;2136;48.502;9.194;2022-10-16T10:38:02;39.20;46.60
4245;DHT22;2136;48.502;9.194;2022-10-16T10:40:42;42.40;39.00
4245;DHT22;2136;48.502;9.194;2022-10-16T10:43:20;45.10;35.00
4245;DHT22;2136;48.502;9.194;2022-10-16T10:45:54;46.90;31.70
4245;DHT22;2136;48.502;9.194;2022-10-16T10:48:41;48.10;27.70
4245;DHT22;2136;48.502;9.194;2022-10-16T10:51:17;49.20;27.00
4245;DHT22;2136;48.502;9.194;2022-10-16T10:53:52;50.40;26.70
4245;DHT22;2136;48.502;9.194;2022-10-16T10:56:39;51.40;25.20
4245;DHT22;2136;48.502;9.194;2022-10-16T10:59:21;51.80;23.30
4245;DHT22;2136;48.502;9.194;2022-10-16T11:01:56;51.80;22.90
4245;DHT22;2136;48.502;9.194;2022-10-16T11:04:38;51.80;22.50
4245;DHT22;2136;48.502;9.194;2022-10-16T11:07:13;51.60;22.00
4245;DHT22;2136;48.502;9.194;2022-10-16T11:09:44;51.90;22.50
4245;DHT22;2136;48.502;9.194;2022-10-16T11:12:17;52.00;22.00
4245;DHT22;2136;48.502;9.194;2022-10-16T11:14:49;51.50;21.70
4245;DHT22;2136;48.502;9.194;2022-10-16T11:17:21;51.50;21.90
4245;DHT22;2136;48.502;9.194;2022-10-16T11:19:55;51.40;21.80
4245;DHT22;2136;48.502;9.194;2022-10-16T11:22:27;51.30;21.70
4245;DHT22;2136;48.502;9.194;2022-10-16T11:25:02;51.30;21.80
4245;DHT22;2136;48.502;9.194;2022-10-16T11:27:35;51.00;21.30
4245;DHT22;2136;48.502;9.194;2022-10-16T11:30:11;50.60;21.30
4245;DHT22;2136;48.502;9.194;2022-10-16T11:32:49;49.70;21.20
4245;DHT22;2136;48.502;9.194;2022-10-16T11:35:22;48.20;21.70
4245;DHT22;2136;48.502;9.194;2022-10-16T11:37:53;46.20;21.70
4245;DHT22;2136;48.502;9.194;2022-10-16T11:40:25;43.90;22.80
4245;DHT22;2136;48.502;9.194;2022-10-16T11:42:57;41.70;24.00
4245;DHT22;2136;48.502;9.194;2022-10-16T11:45:31;39.90;25.50
4245;DHT22;2136;48.502;9.194;2022-10-16T11:48:04;38.10;26.80
4245;DHT22;2136;48.502;9.194;2022-10-16T11:50:37;36.50;27.90
4245;DHT22;2136;48.502;9.194;2022-10-16T11:53:13;35.10;29.50
4245;DHT22;2136;48.502;9.194;2022-10-16T11:55:44;33.90;30.70
4245;DHT22;2136;48.502;9.194;2022-10-16T11:58:21;33.00;32.00
4245;DHT22;2136;48.502;9.194;2022-10-16T12:00:56;32.10;33.10
4245;DHT22;2136;48.502;9.194;2022-10-16T12:03:29;31.30;34.50
4245;DHT22;2136;48.502;9.194;2022-10-16T12:06:19;30.60;35.40
4245;DHT22;2136;48.502;9.194;2022-10-16T12:08:50;29.90;36.70
4245;DHT22;2136;48.502;9.194;2022-10-16T12:11:24;29.20;37.90
4245;DHT22;2136;48.502;9.194;2022-10-16T12:14:05;28.60;38.80
4245;DHT22;2136;48.502;9.194;2022-10-16T12:16:33;28.10;40.00
4245;DHT22;2136;48.502;9.194;2022-10-16T12:19:10;27.70;40.70
4245;DHT22;2136;48.502;9.194;2022-10-16T12:21:38;27.30;41.30
4245;DHT22;2136;48.502;9.194;2022-10-16T12:24:06;27.10;41.70
4245;DHT22;2136;48.502;9.194;2022-10-16T12:26:34;26.80;42.30
4245;DHT22;2136;48.502;9.194;2022-10-16T12:29:18;26.70;43.40
4245;DHT22;2136;48.502;9.194;2022-10-16T12:31:49;26.60;44.90
4245;DHT22;2136;48.502;9.194;2022-10-16T12:34:32;26.50;45.30
4245;DHT22;2136;48.502;9.194;2022-10-16T12:37:11;26.40;45.80
4245;DHT22;2136;48.502;9.194;2022-10-16T12:39:39;26.30;46.40
4245;DHT22;2136;48.502;9.194;2022-10-16T12:42:20;26.30;46.60
4245;DHT22;2136;48.502;9.194;2022-10-16T12:44:47;26.30;46.50
4245;DHT22;2136;48.502;9.194;2022-10-16T12:47:21;26.20;46.50
4245;DHT22;2136;48.502;9.194;2022-10-16T12:49:49;26.20;46.70
4245;DHT22;2136;48.502;9.194;2022-10-16T12:52:27;26.10;46.60
4245;DHT22;2136;48.502;9.194;2022-10-16T12:54:56;26.00;46.60
4245;DHT22;2136;48.502;9.194;2022-10-16T12:57:39;26.00;46.50
4245;DHT22;2136;48.502;9.194;2022-10-16T13:00:16;26.00;47.10
4245;DHT22;2136;48.502;9.194;2022-10-16T13:03:20;26.00;47.30
4245;DHT22;2136;48.502;9.194;2022-10-16T13:06:00;25.90;46.90
4245;DHT22;2136;48.502;9.194;2022-10-16T13:15:11;26.20;48.20
4245;DHT22;2136;48.502;9.194;2022-10-16T13:17:51;26.30;48.30
4245;DHT22;2136;48.502;9.194;2022-10-16T13:20:25;26.50;48.30
4245;DHT22;2136;48.502;9.194;2022-10-16T13:23:02;27.00;47.90
4245;DHT22;2136;48.502;9.194;2022-10-16T13:25:44;27.40;47.30
4245;DHT22;2136;48.502;9.194;2022-10-16T13:28:14;28.10;47.30
4245;DHT22;2136;48.502;9.194;2022-10-16T13:30:42;28.80;45.80
4245;DHT22;2136;48.502;9.194;2022-10-16T13:33:16;28.80;44.50
4245;DHT22;2136;48.502;9.194;2022-10-16T13:35:48;28.70;44.50
4245;DHT22;2136;48.502;9.194;2022-10-16T13:38:17;28.60;44.50
4245;DHT22;2136;48.502;9.194;2022-10-16T13:40:54;28.30;44.10
4245;DHT22;2136;48.502;9.194;2022-10-16T13:43:25;28.00;44.10
4245;DHT22;2136;48.502;9.194;2022-10-16T13:45:54;27.80;44.90
4245;DHT22;2136;48.502;9.194;2022-10-16T13:48:21;27.60;45.90
4245;DHT22;2136;48.502;9.194;2022-10-16T13:51:01;27.70;47.50
4245;DHT22;2136;48.502;9.194;2022-10-16T13:53:31;28.00;47.20
4245;DHT22;2136;48.502;9.194;2022-10-16T13:56:01;28.30;45.50
4245;DHT22;2136;48.502;9.194;2022-10-16T13:58:28;28.70;45.40
4245;DHT22;2136;48.502;9.194;2022-10-16T14:00:56;28.70;44.40
4245;DHT22;2136;48.502;9.194;2022-10-16T14:03:25;28.50;44.80
4245;DHT22;2136;48.502;9.194;2022-10-16T14:05:54;28.30;45.60
4245;DHT22;2136;48.502;9.194;2022-10-16T14:08:22;28.10;46.00
4245;DHT22;2136;48.502;9.194;2022-10-16T14:10:52;27.90;46.60
4245;DHT22;2136;48.502;9.194;2022-10-16T14:13:30;27.70;47.40
4245;DHT22;2136;48.502;9.194;2022-10-16T14:16:01;27.50;48.30
4245;DHT22;2136;48.502;9.194;2022-10-16T14:18:29;27.30;48.70
4245;DHT22;2136;48.502;9.194;2022-10-16T14:21:03;27.10;49.70
4245;DHT22;2136;48.502;9.194;2022-10-16T14:23:33;26.90;49.80
4245;DHT22;2136;48.502;9.194;2022-10-16T14:26:16;26.80;50.10
4245;DHT22;2136;48.502;9.194;2022-10-16T14:28:46;26.60;50.90
4245;DHT22;2136;48.502;9.194;2022-10-16T14:31:27;26.40;51.60
4245;DHT22;2136;48.502;9.194;2022-10-16T14:33:55;26.30;52.70
4245;DHT22;2136;48.502;9.194;2022-10-16T14:36:22;26.10;53.60
4245;DHT22;2136;48.502;9.194;2022-10-16T14:39:02;26.00;53.40
4245;DHT22;2136;48.502;9.194;2022-10-16T14:41:29;25.80;54.30
4245;DHT22;2136;48.502;9.194;2022-10-16T14:44:01;25.70;54.50
4245;DHT22;2136;48.502;9.194;2022-10-16T14:46:32;25.60;54.90
4245;DHT22;2136;48.502;9.194;2022-10-16T14:49:03;25.50;55.30
4245;DHT22;2136;48.502;9.194;2022-10-16T14:51:31;25.50;55.00
4245;DHT22;2136;48.502;9.194;2022-10-16T14:53:57;25.40;55.40
4245;DHT22;2136;48.502;9.194;2022-10-16T14:56:30;25.30;55.80
4245;DHT22;2136;48.502;9.194;2022-10-16T14:58:59;25.30;56.00
4245;DHT22;2136;48.502;9.194;2022-10-16T15:01:26;25.20;55.50
4245;DHT22;2136;48.502;9.194;2022-10-16T15:03:53;25.20;55.60
4245;DHT22;2136;48.502;9.194;2022-10-16T15:06:21;25.20;55.80
4245;DHT22;2136;48.502;9.194;2022-10-16T15:08:48;25.20;55.90
4245;DHT22;2136;48.502;9.194;2022-10-16T15:11:17;25.10;56.00
4245;DHT22;2136;48.502;9.194;2022-10-16T15:13:45;25.10;56.20
4245;DHT22;2136;48.502;9.194;2022-10-16T15:16:15;25.00;56.20
4245;DHT22;2136;48.502;9.194;2022-10-16T15:18:43;24.90;56.50
4245;DHT22;2136;48.502;9.194;2022-10-16T15:21:15;24.80;57.40
4245;DHT22;2136;48.502;9.194;2022-10-16T15:23:48;24.70;58.20
4245;DHT22;2136;48.502;9.194;2022-10-16T15:26:15;24.60;58.20
4245;DHT22;2136;48.502;9.194;2022-10-16T15:28:42;24.50;58.00
4245;DHT22;2136;48.502;9.194;2022-10-16T15:31:09;24.40;58.30
4245;DHT22;2136;48.502;9.194;2022-10-16T15:33:37;24.30;58.50
4245;DHT22;2136;48.502;9.194;2022-10-16T15:36:04;24.30;58.70
4245;DHT22;2136;48.502;9.194;2022-10-16T15:38:31;24.30;58.60
4245;DHT22;2136;48.502;9.194;2022-10-16T15:40:58;24.40;58.70
4245;DHT22;2136;48.502;9.194;2022-10-16T15:43:25;24.40;58.60
4245;DHT22;2136;48.502;9.194;2022-10-16T15:45:59;24.40;58.60
4245;DHT22;2136;48.502;9.194;2022-10-16T15:48:27;24.40;58.50
4245;DHT22;2136;48.502;9.194;2022-10-16T15:50:56;24.40;58.60
4245;DHT22;2136;48.502;9.194;2022-10-16T15:53:22;24.40;58.70
4245;DHT22;2136;48.502;9.194;2022-10-16T15:55:49;24.40;58.20
4245;DHT22;2136;48.502;9.194;2022-10-16T15:58:16;24.40;57.90
4245;DHT22;2136;48.502;9.194;2022-10-16T16:00:43;24.30;57.90
4245;DHT22;2136;48.502;9.194;2022-10-16T16:03:10;24.20;57.90
4245;DHT22;2136;48.502;9.194;2022-10-16T16:05:38;24.10;58.20
4245;DHT22;2136;48.502;9.194;2022-10-16T16:08:06;24.00;58.40
4245;DHT22;2136;48.502;9.194;2022-10-16T16:10:33;23.90;58.50
4245;DHT22;2136;48.502;9.194;2022-10-16T16:13:00;23.80;59.40
4245;DHT22;2136;48.502;9.194;2022-10-16T16:15:27;23.70;60.60
4245;DHT22;2136;48.502;9.194;2022-10-16T16:17:53;23.60;60.80
4245;DHT22;2136;48.502;9.194;2022-10-16T16:20:20;23.40;61.80
4245;DHT22;2136;48.502;9.194;2022-10-16T16:22:47;23.30;63.30
4245;DHT22;2136;48.502;9.194;2022-10-16T16:25:15;23.20;64.20
4245;DHT22;2136;48.502;9.194;2022-10-16T16:27:42;23.00;64.90